ID Time Temp Humidity Light PM2.5 PM10 Voltage Extra Firmware Position Fcnt TTN version Gateways Distance RSSI LSNR Radiosettings
2026-05-08 22:37:56 8.5625°C 102% 3.32V v254 52.1118 / 5.01898 8841 ttn.v3 0.751km -125 -8 867.9MHz, SF10BW125, 4/5CR
2026-05-08 22:21:36 8.875°C 101.062% 3.32V v254 52.1118 / 5.01898 8840 ttn.v3 0.751km -118 -4 868.5MHz, SF10BW125, 4/5CR
2026-05-08 22:05:16 9.0625°C 100.625% 3.32V v254 52.1118 / 5.01898 8839 ttn.v3 0.751km -119 -7.2 867.7MHz, SF10BW125, 4/5CR
2026-05-08 21:32:36 9.875°C 96.125% 3.32V v254 52.1118 / 5.01898 8837 ttn.v3 0.751km -122 -4.2 867.5MHz, SF10BW125, 4/5CR
2026-05-08 21:16:16 10.5°C 94.4375% 3.32V v254 52.1118 / 5.01898 8836 ttn.v3 0.751km -124 -5 868.1MHz, SF10BW125, 4/5CR
2026-05-08 20:59:55 11.125°C 90% 3.32V v254 52.1118 / 5.01898 8835 ttn.v3 0.751km -124 -7.5 867.3MHz, SF10BW125, 4/5CR
9.335km -106 -12.25 867.3MHz, SF10BW125, 4/5CR
2026-05-08 20:27:13 13.5°C 79.25% 3.32V v254 52.1118 / 5.01898 8833 ttn.v3 9.335km -109 -16.25 867.1MHz, SF10BW125, 4/5CR
2026-05-08 19:54:33 15.4375°C 63.5625% 3.32V v254 52.1116 / 5.01898 8831 ttn.v3 0.747km -123 -6.2 867.9MHz, SF10BW125, 4/5CR
9.331km -111 -13.25 867.9MHz, SF10BW125, 4/5CR
2026-05-08 19:38:11 15.875°C 61.375% 3.32V v254 52.1116 / 5.01898 8830 ttn.v3 0.747km -125 -8 868.1MHz, SF10BW125, 4/5CR
2026-05-08 19:21:48 16.375°C 62.25% 3.32V v254 52.1116 / 5.01898 8829 ttn.v3 0.747km -118 -6.2 867.7MHz, SF10BW125, 4/5CR
2026-05-08 19:05:25 16.6875°C 58.625% 3.33V v254 52.1116 / 5.01898 8828 ttn.v3 0.747km -124 -11.2 868.5MHz, SF10BW125, 4/5CR
2026-05-08 18:49:03 16.625°C 54% 3.33V v254 52.1116 / 5.01898 8827 ttn.v3 0.747km -119 -4 867.5MHz, SF10BW125, 4/5CR
2026-05-08 18:16:17 16.6875°C 52.8125% 3.33V v254 52.1116 / 5.01898 8825 ttn.v3 0.747km -124 -7.5 867.3MHz, SF10BW125, 4/5CR
2026-05-08 17:59:54 16.625°C 53.5% 3.32V v254 52.1116 / 5.01898 8824 ttn.v3 0.747km -123 -6 868.1MHz, SF10BW125, 4/5CR
2026-05-08 17:43:32 16.625°C 56.25% 3.32V v254 52.1116 / 5.01898 8823 ttn.v3 6.419km -135 -17.75 867.1MHz, SF10BW125, 4/5CR
2026-05-08 17:10:46 16.6875°C 56.9375% 3.33V v254 52.1116 / 5.01898 8821 ttn.v3 0.747km -125 -7.8 867.9MHz, SF10BW125, 4/5CR
2026-05-08 16:38:00 16.6875°C 58.6875% 3.33V v254 52.1116 / 5.01898 8819 ttn.v3 0.747km -126 -13 867.7MHz, SF10BW125, 4/5CR
2026-05-08 16:21:37 16.9375°C 58.125% 3.33V v254 52.1116 / 5.01898 8818 ttn.v3 0.747km -126 -8.8 868.1MHz, SF10BW125, 4/5CR
2026-05-08 16:05:14 17.0625°C 59.4375% 3.33V v254 52.1116 / 5.01898 8817 ttn.v3 0.747km -129 -12 867.5MHz, SF10BW125, 4/5CR
2026-05-08 15:32:29 17.3125°C 58.5% 3.33V v254 52.1116 / 5.01898 8815 ttn.v3 0.747km -121 -6 867.3MHz, SF10BW125, 4/5CR
2026-05-08 14:43:20 17.625°C 58.6875% 3.33V v254 52.1116 / 5.01898 8812 ttn.v3 0.747km -122 -4.8 868.1MHz, SF10BW125, 4/5CR
2026-05-08 14:26:57 17.4375°C 53.3125% 3.33V v254 52.1116 / 5.01898 8811 ttn.v3 0.747km -126 -8.5 867.9MHz, SF10BW125, 4/5CR
9.331km -109 -12.25 867.9MHz, SF10BW125, 4/5CR
2026-05-08 13:54:11 17.375°C 57.4375% 3.33V v254 52.1116 / 5.01898 8809 ttn.v3 0.747km -122 -8.8 867.7MHz, SF10BW125, 4/5CR
2026-05-08 13:21:25 16.25°C 63.5625% 3.32V v254 52.1116 / 5.01898 8807 ttn.v3 0.747km -119 -4.2 867.5MHz, SF10BW125, 4/5CR
2026-05-08 13:05:03 16.1875°C 63.875% 3.33V v254 52.1116 / 5.01898 8806 ttn.v3 0.747km -124 -7.5 868.1MHz, SF10BW125, 4/5CR
2026-05-08 12:48:40 17.8125°C 58% 3.32V v254 52.1116 / 5.01898 8805 ttn.v3 0.747km -133 -15.8 867.3MHz, SF10BW125, 4/5CR
2026-05-08 12:32:17 17.0625°C 63.9375% 3.33V v254 52.1116 / 5.01898 8804 ttn.v3 0.747km -115 -8 868.5MHz, SF10BW125, 4/5CR
2026-05-08 12:15:54 16.8125°C 61.9375% 3.32V v254 52.1116 / 5.01898 8803 ttn.v3 9.331km -103 -12 867.1MHz, SF10BW125, 4/5CR
2026-05-08 11:59:30 16.8125°C 61.125% 3.32V v254 52.1116 / 5.01898 8802 ttn.v3 - -112 -15.25 868.3MHz, SF10BW125, 4/5CR
2026-05-08 11:43:07 17.3125°C 61.25% 3.32V v254 52.1116 / 5.01898 8801 ttn.v3 0.747km -122 -6.5 867.9MHz, SF10BW125, 4/5CR
9.331km -108 -9.5 867.9MHz, SF10BW125, 4/5CR
2026-05-08 11:26:45 16.1875°C 64.6875% 3.32V v254 52.1116 / 5.01898 8800 ttn.v3 0.747km -124 -8.5 868.1MHz, SF10BW125, 4/5CR
2026-05-08 11:10:22 15.25°C 69% 3.32V v254 52.1116 / 5.01898 8799 ttn.v3 0.747km -124 -10.5 867.7MHz, SF10BW125, 4/5CR
2026-05-08 10:37:38 14.1875°C 71.125% 3.32V v254 52.1116 / 5.01898 8797 ttn.v3 0.747km -126 -11.5 867.5MHz, SF10BW125, 4/5CR
2026-05-08 10:04:55 13.0625°C 77.5625% 3.32V v254 52.1116 / 5.01898 8795 ttn.v3 0.747km -123 -10 867.3MHz, SF10BW125, 4/5CR
2026-05-08 09:48:34 12.375°C 79.875% 3.32V v254 52.1116 / 5.01898 8794 ttn.v3 0.747km -124 -9.2 868.1MHz, SF10BW125, 4/5CR
6.419km -128 -13.75 868.1MHz, SF10BW125, 4/5CR
2026-05-08 09:32:13 12°C 81.75% 3.32V v254 52.1116 / 5.01898 8793 ttn.v3 0.747km -126 -13.2 867.1MHz, SF10BW125, 4/5CR
2026-05-08 09:15:52 11.375°C 83.25% 3.32V v254 52.1116 / 5.01898 8792 ttn.v3 0.747km -128 -14 868.5MHz, SF10BW125, 4/5CR
2026-05-08 08:26:51 10.5°C 90.125% 3.32V v254 52.1116 / 5.01898 8789 ttn.v3 0.747km -120 -8 867.7MHz, SF10BW125, 4/5CR
2026-05-08 08:10:31 10.1875°C 90.3125% 3.32V v254 52.1116 / 5.01898 8788 ttn.v3 6.419km -129 -13.5 868.1MHz, SF10BW125, 4/5CR
2026-05-08 07:37:51 9.875°C 93.0625% 3.32V v254 52.1116 / 5.01898 8786 ttn.v3 0.747km -122 -9.5 868.5MHz, SF10BW125, 4/5CR
2026-05-08 06:48:52 9.5625°C 93.9375% 3.32V v254 52.1116 / 5.01898 8783 ttn.v3 6.419km -131 -17 867.1MHz, SF10BW125, 4/5CR
0.747km -130 -18.2 867.1MHz, SF10BW125, 4/5CR
2026-05-08 06:32:32 9.5625°C 93.625% 3.32V v254 52.1116 / 5.01898 8782 ttn.v3 0.747km -125 -10.2 868.1MHz, SF10BW125, 4/5CR
2026-05-08 06:16:12 9.6875°C 92.3125% 3.32V v254 52.1116 / 5.01898 8781 ttn.v3 0.747km -120 -4.8 867.9MHz, SF10BW125, 4/5CR
2026-05-08 05:43:32 10.0625°C 90.75% 3.32V v254 52.1116 / 5.01898 8779 ttn.v3 0.747km -123 -9.8 867.7MHz, SF10BW125, 4/5CR
2026-05-08 05:27:12 10.125°C 91% 3.32V v254 52.1116 / 5.01898 8778 ttn.v3 0.747km -124 -11.5 868.3MHz, SF10BW125, 4/5CR
2026-05-08 05:10:52 10.1875°C 90.125% 3.32V v254 52.1116 / 5.01898 8777 ttn.v3 0.747km -127 -8.8 867.5MHz, SF10BW125, 4/5CR
2026-05-08 04:38:12 10.25°C 90.6875% 3.32V v254 52.1116 / 5.01898 8775 ttn.v3 0.747km -126 -6.8 867.3MHz, SF10BW125, 4/5CR
6.419km -131 -16 867.3MHz, SF10BW125, 4/5CR
2026-05-08 04:05:31 10.4375°C 89.1875% 3.32V v254 52.1116 / 5.01898 8773 ttn.v3 0.747km -130 -17.5 867.1MHz, SF10BW125, 4/5CR
2026-05-08 03:00:10 11°C 86% 3.32V v254 52.1116 / 5.01898 8769 ttn.v3 0.747km -120 -7.8 867.7MHz, SF10BW125, 4/5CR
6.419km -132 -16.5 867.7MHz, SF10BW125, 4/5CR
2026-05-08 02:27:29 11.25°C 83.875% 3.32V v254 52.1116 / 5.01898 8767 ttn.v3 0.747km -122 -4.5 867.5MHz, SF10BW125, 4/5CR
2026-05-08 01:54:48 11.375°C 84.1875% 3.32V v254 52.1116 / 5.01898 8765 ttn.v3 0.747km -120 -3.5 867.3MHz, SF10BW125, 4/5CR
6.419km -129 -12.25 867.3MHz, SF10BW125, 4/5CR
2026-05-08 01:22:06 11.6875°C 81.375% 3.32V v254 52.1116 / 5.01898 8763 ttn.v3 6.419km -131 -14 867.1MHz, SF10BW125, 4/5CR
2026-05-08 01:05:45 11.6875°C 81.4375% 3.32V v254 52.1116 / 5.01898 8762 ttn.v3 0.747km -124 -11.2 868.5MHz, SF10BW125, 4/5CR
6.419km -124 -16.25 868.5MHz, SF10BW125, 4/5CR
2026-05-08 00:49:25 11.75°C 82.375% 3.32V v254 52.1116 / 5.01898 8761 ttn.v3 0.747km -128 -10.8 867.9MHz, SF10BW125, 4/5CR
6.419km -132 -15 867.9MHz, SF10BW125, 4/5CR
9.331km -110 -15.75 867.9MHz, SF10BW125, 4/5CR
2026-05-08 00:16:44 11.9375°C 80.25% 3.32V v254 52.1116 / 5.01898 8759 ttn.v3 9.331km -107 -12.75 867.7MHz, SF10BW125, 4/5CR
0.747km -130 -16 867.7MHz, SF10BW125, 4/5CR
2026-05-08 00:00:23 12°C 79.5% 3.32V v254 52.1116 / 5.01898 8758 ttn.v3 0.747km -116 -1 868.1MHz, SF10BW125, 4/5CR
9.331km -105 -14 868.1MHz, SF10BW125, 4/5CR
2026-05-07 23:44:02 12.125°C 78.4375% 3.32V v254 52.1116 / 5.01898 8757 ttn.v3 0.747km -118 -7.8 867.5MHz, SF10BW125, 4/5CR
2026-05-07 23:27:42 12.375°C 77.5% 3.32V v254 52.1116 / 5.01898 8756 ttn.v3 0.747km -111 -4.8 868.5MHz, SF10BW125, 4/5CR
2026-05-07 23:11:21 12.4375°C 75.6875% 3.32V v254 52.1116 / 5.01898 8755 ttn.v3 0.747km -128 -10.5 867.3MHz, SF10BW125, 4/5CR
6.419km -129 -12.5 867.3MHz, SF10BW125, 4/5CR
2026-05-07 22:38:39 12.75°C 73.5% 3.32V v254 52.1116 / 5.01898 8753 ttn.v3 9.331km -108 -10 867.1MHz, SF10BW125, 4/5CR
6.419km -132 -15.25 867.1MHz, SF10BW125, 4/5CR
- -132 -16.5 867.1MHz, SF10BW125, 4/5CR
2026-05-07 22:22:17 13°C 72.125% 3.32V v254 52.1116 / 5.01898 8752 ttn.v3 0.747km -128 -8.8 868.1MHz, SF10BW125, 4/5CR
2026-05-07 22:05:56 13.1875°C 70.125% 3.32V v254 52.1116 / 5.01898 8751 ttn.v3 0.747km -118 -3.5 867.9MHz, SF10BW125, 4/5CR
9.331km -107 -11 867.9MHz, SF10BW125, 4/5CR
2026-05-07 21:49:35 13.375°C 67.25% 3.32V v254 52.1116 / 5.01898 8750 ttn.v3 0.747km -116 -4 868.5MHz, SF10BW125, 4/5CR
2026-05-07 21:33:14 13.4375°C 67.3125% 3.32V v254 52.1116 / 5.01898 8749 ttn.v3 9.331km -107 -13.25 867.7MHz, SF10BW125, 4/5CR
0.747km -128 -15 867.7MHz, SF10BW125, 4/5CR
2026-05-07 21:00:31 13.75°C 67.25% 3.32V v254 52.1116 / 5.01898 8747 ttn.v3 0.747km -124 -11 867.5MHz, SF10BW125, 4/5CR
2026-05-07 20:44:09 13.9375°C 68.0625% 3.32V v254 52.1116 / 5.01898 8746 ttn.v3 0.747km -122 -7.2 868.1MHz, SF10BW125, 4/5CR
2026-05-07 20:11:26 14.25°C 68.8125% 3.33V v254 52.1116 / 5.01898 8744 ttn.v3 0.747km -113 -8 868.5MHz, SF10BW125, 4/5CR
2026-05-07 19:55:04 14.375°C 64.5625% 3.33V v254 52.1116 / 5.01898 8743 ttn.v3 6.419km -131 -14.5 867.1MHz, SF10BW125, 4/5CR
2026-05-07 19:22:20 14.6875°C 60.9375% 3.32V v254 52.1116 / 5.01898 8741 ttn.v3 6.419km -130 -13.75 867.9MHz, SF10BW125, 4/5CR
2026-05-07 19:05:58 14.875°C 57.1875% 3.32V v254 52.1116 / 5.01898 8740 ttn.v3 0.747km -116 -1.5 868.1MHz, SF10BW125, 4/5CR
9.331km -104 -13.25 868.1MHz, SF10BW125, 4/5CR
2026-05-07 18:49:36 15.1875°C 57.75% 3.32V v254 52.1116 / 5.01898 8739 ttn.v3 0.747km -117 -5.2 867.7MHz, SF10BW125, 4/5CR
2026-05-07 18:01:11 18.1875°C 48.625% 3.33V v254 52.1116 / 5.01898 8736 ttn.v3 - -115 -15.75 868.3MHz, SF12BW125, 4/5CR
2026-05-07 17:44:08 16.1875°C 55.4375% 3.32V v254 52.1117 / 5.01898 8735 ttn.v3 0.749km -126 -10.5 867.3MHz, SF10BW125, 4/5CR
2026-05-07 17:27:45 16.875°C 50.5% 3.33V v254 52.1117 / 5.01898 8734 ttn.v3 0.749km -126 -10.8 868.1MHz, SF10BW125, 4/5CR
2026-05-07 17:11:22 17.25°C 50.5% 3.32V v254 52.1117 / 5.01898 8733 ttn.v3 9.333km -109 -16.5 867.1MHz, SF10BW125, 4/5CR
2026-05-07 16:38:35 16.8125°C 45.375% 3.32V v254 52.1117 / 5.01898 8731 ttn.v3 0.749km -128 -11.2 867.9MHz, SF10BW125, 4/5CR
2026-05-07 16:05:49 18.3125°C 42.375% 3.32V v254 52.1117 / 5.01898 8729 ttn.v3 0.749km -125 -11.8 867.7MHz, SF10BW125, 4/5CR
2026-05-07 15:49:25 19.75°C 42.375% 3.33V v254 52.1117 / 5.01898 8728 ttn.v3 0.749km -122 -4.8 868.1MHz, SF10BW125, 4/5CR
2026-05-07 15:00:13 19.875°C 39.3125% 3.33V v254 52.1117 / 5.01898 8725 ttn.v3 9.333km -101 -10.75 867.3MHz, SF10BW125, 4/5CR
6.428km -127 -12 867.3MHz, SF10BW125, 4/5CR
0.749km -136 -17 867.3MHz, SF10BW125, 4/5CR
2026-05-07 14:11:01 18.25°C 46.3125% 3.33V v254 52.1117 / 5.01898 8722 ttn.v3 0.749km -128 -10.2 868.1MHz, SF10BW125, 4/5CR
- -113 -15 868.1MHz, SF10BW125, 4/5CR
2026-05-07 13:54:38 17.5625°C 48.3125% 3.32V v254 52.1117 / 5.01898 8721 ttn.v3 0.749km -129 -12.2 867.9MHz, SF10BW125, 4/5CR
2026-05-07 13:21:52 17.875°C 51.4375% 3.32V v254 52.1117 / 5.01898 8719 ttn.v3 0.749km -118 -4.5 867.7MHz, SF10BW125, 4/5CR
2026-05-07 12:49:06 16.5625°C 55.0625% 3.32V v254 52.1117 / 5.01898 8717 ttn.v3 0.749km -122 -9.5 867.5MHz, SF10BW125, 4/5CR
2026-05-07 12:32:44 15.125°C 59.25% 3.32V v254 52.1117 / 5.01898 8716 ttn.v3 0.749km -128 -9.5 868.1MHz, SF10BW125, 4/5CR
- -114 -15.25 868.1MHz, SF10BW125, 4/5CR
2026-05-07 12:16:22 15°C 60.1875% 3.32V v254 52.1117 / 5.01898 8715 ttn.v3 0.749km -120 -4.8 867.3MHz, SF10BW125, 4/5CR
2026-05-07 11:43:38 15.875°C 61.6875% 3.32V v254 52.1117 / 5.01898 8713 ttn.v3 9.333km -111 -13.75 867.1MHz, SF10BW125, 4/5CR
2026-05-07 11:10:54 14.625°C 64.875% 3.32V v254 52.1117 / 5.01898 8711 ttn.v3 0.749km -129 -12.2 867.9MHz, SF10BW125, 4/5CR
2026-05-07 10:54:32 14.5625°C 64.6875% 3.32V v254 52.1117 / 5.01898 8710 ttn.v3 0.749km -130 -11.5 868.1MHz, SF10BW125, 4/5CR
6.428km -130 -16.5 868.1MHz, SF10BW125, 4/5CR
2026-05-07 10:38:10 16°C 58.6875% 3.32V v254 52.1117 / 5.01898 8709 ttn.v3 0.749km -121 -7.8 867.7MHz, SF10BW125, 4/5CR
2026-05-07 10:05:27 15.0625°C 62.625% 3.32V v254 52.1117 / 5.01898 8707 ttn.v3 0.749km -131 -13.8 867.5MHz, SF10BW125, 4/5CR
2026-05-07 09:32:45 10.875°C 81.6875% 3.32V v254 52.1117 / 5.01898 8705 ttn.v3 0.749km -130 -13 867.3MHz, SF10BW125, 4/5CR
2026-05-07 09:16:25 9.75°C 88.5% 3.32V v254 52.1117 / 5.01898 8704 ttn.v3 6.428km -128 -14 868.1MHz, SF10BW125, 4/5CR
2026-05-07 09:00:10 9.375°C 89.25% 3.32V v254 52.1117 / 5.01898 8703 ttn.v3 0.749km -129 -17 867.1MHz, SF10BW125, 4/5CR
9.333km -107 -17.5 867.1MHz, SF10BW125, 4/5CR
2026-05-07 08:43:46 9°C 92.6875% 3.32V v254 52.1117 / 5.01898 8702 ttn.v3 0.749km -126 -13.5 868.5MHz, SF10BW125, 4/5CR
2026-05-07 08:27:26 8.5625°C 95.5% 3.32V v254 52.1117 / 5.01898 8701 ttn.v3 0.749km -125 -8.2 867.9MHz, SF10BW125, 4/5CR
6.428km -132 -17.5 867.9MHz, SF10BW125, 4/5CR
2026-05-07 07:54:49 7.375°C 104.625% 3.32V v254 52.1117 / 5.01898 8699 ttn.v3 0.749km -120 -7.5 867.7MHz, SF10BW125, 4/5CR
6.428km -132 -15.75 867.7MHz, SF10BW125, 4/5CR
2026-05-07 07:38:30 6.875°C 106.188% 3.32V v254 52.1117 / 5.01898 8698 ttn.v3 0.749km -126 -8.8 868.1MHz, SF10BW125, 4/5CR
2026-05-07 07:22:12 6.5°C 106.188% 3.32V v254 52.1117 / 5.01898 8697 ttn.v3 0.749km -124 -5.8 867.5MHz, SF10BW125, 4/5CR
2026-05-07 06:49:34 6.3125°C 106.812% 3.32V v254 52.1117 / 5.01898 8695 ttn.v3 0.749km -126 -11 867.3MHz, SF10BW125, 4/5CR
6.428km -132 -18.5 867.3MHz, SF10BW125, 4/5CR
2026-05-07 06:00:39 5.6875°C 106.062% 3.32V v254 52.1117 / 5.01898 8692 ttn.v3 0.749km -125 -11 868.1MHz, SF10BW125, 4/5CR
2026-05-07 05:44:21 5.625°C 105.5% 3.32V v254 52.1117 / 5.01898 8691 ttn.v3 0.749km -126 -9.2 867.9MHz, SF10BW125, 4/5CR
9.333km -109 -11.75 867.9MHz, SF10BW125, 4/5CR
2026-05-07 05:11:44 5.4375°C 103.625% 3.32V v254 52.1117 / 5.01898 8689 ttn.v3 0.749km -122 -8.5 867.7MHz, SF10BW125, 4/5CR
6.428km -131 -15.25 867.7MHz, SF10BW125, 4/5CR
2026-05-07 04:39:07 5.6875°C 103.25% 3.32V v254 52.1117 / 5.01898 8687 ttn.v3 0.749km -125 -6 867.5MHz, SF10BW125, 4/5CR
2026-05-07 04:22:49 5.8125°C 100.75% 3.32V v254 52.1117 / 5.01898 8686 ttn.v3 0.749km -126 -6.8 868.1MHz, SF10BW125, 4/5CR
2026-05-07 04:06:30 6.3125°C 101% 3.32V v254 52.1117 / 5.01898 8685 ttn.v3 6.428km -129 -14.25 867.3MHz, SF10BW125, 4/5CR
2026-05-07 03:50:12 6.625°C 99.9375% 3.32V v254 52.1117 / 5.01898 8684 ttn.v3 0.749km -122 -9.2 868.5MHz, SF10BW125, 4/5CR
2026-05-07 03:33:53 7.0625°C 99.125% 3.32V v254 52.1117 / 5.01898 8683 ttn.v3 6.428km -133 -16.75 867.1MHz, SF10BW125, 4/5CR
2026-05-07 03:01:16 7.375°C 95% 3.32V v254 52.1117 / 5.01898 8681 ttn.v3 0.749km -123 -8 867.9MHz, SF10BW125, 4/5CR
6.428km -135 -18.5 867.9MHz, SF10BW125, 4/5CR
2026-05-07 02:44:56 7.5625°C 91.75% 3.32V v254 52.1117 / 5.01898 8680 ttn.v3 0.749km -118 -4 868.1MHz, SF10BW125, 4/5CR
2026-05-07 02:28:37 8.125°C 87.3125% 3.32V v254 52.1117 / 5.01898 8679 ttn.v3 0.749km -125 -11.8 867.7MHz, SF10BW125, 4/5CR
6.428km -130 -13.25 867.7MHz, SF10BW125, 4/5CR
2026-05-07 02:12:18 8.375°C 87.25% 3.32V v254 52.1117 / 5.01898 8678 ttn.v3 0.749km -121 -9.8 868.5MHz, SF10BW125, 4/5CR
2026-05-07 01:23:20 9.4375°C 85% 3.32V v254 52.1117 / 5.01898 8675 ttn.v3 0.749km -133 -14.2 867.3MHz, SF10BW125, 4/5CR
2026-05-07 00:50:40 10.1875°C 80.5% 3.32V v254 52.1117 / 5.01898 8673 ttn.v3 0.749km -126 -13.2 867.1MHz, SF10BW125, 4/5CR
2026-05-07 00:34:20 10.5°C 79.0625% 3.32V v254 52.1117 / 5.01898 8672 ttn.v3 0.749km -122 -10.8 868.5MHz, SF10BW125, 4/5CR
2026-05-07 00:18:00 10.75°C 78% 3.32V v254 52.1117 / 5.01898 8671 ttn.v3 0.749km -118 -3.5 867.9MHz, SF10BW125, 4/5CR
2026-05-06 23:45:20 10.875°C 77.5% 3.32V v254 52.1117 / 5.01898 8669 ttn.v3 6.428km -126 -11.5 867.7MHz, SF10BW125, 4/5CR
2026-05-06 23:28:59 10.875°C 76.1875% 3.32V v254 52.1117 / 5.01898 8668 ttn.v3 0.749km -122 -6.5 868.1MHz, SF10BW125, 4/5CR
6.428km -130 -14 868.1MHz, SF10BW125, 4/5CR
2026-05-06 22:39:58 11.5°C 73.6875% 3.32V v254 52.1117 / 5.01898 8665 ttn.v3 0.749km -124 -10 867.3MHz, SF10BW125, 4/5CR
2026-05-06 22:23:38 11.75°C 73.3125% 3.32V v254 52.1117 / 5.01898 8664 ttn.v3 0.749km -122 -11.5 868.3MHz, SF10BW125, 4/5CR
6.428km -123 -17 868.3MHz, SF10BW125, 4/5CR
2026-05-06 22:07:17 11.8125°C 75.25% 3.32V v254 52.1117 / 5.01898 8663 ttn.v3 6.428km -131 -14.25 867.1MHz, SF10BW125, 4/5CR
2026-05-06 21:50:57 11.9375°C 75.4375% 3.32V v254 52.1117 / 5.01898 8662 ttn.v3 0.749km -126 -6.2 868.1MHz, SF10BW125, 4/5CR
2026-05-06 21:34:36 12°C 75.375% 3.32V v254 52.1117 / 5.01898 8661 ttn.v3 0.749km -120 -5.2 867.9MHz, SF10BW125, 4/5CR
6.428km -127 -10 867.9MHz, SF10BW125, 4/5CR
2026-05-06 21:01:55 12.0625°C 67.0625% 3.32V v254 52.1117 / 5.01898 8659 ttn.v3 0.749km -121 -8.2 867.7MHz, SF10BW125, 4/5CR
2026-05-06 20:29:14 12.375°C 64.5% 3.32V v254 52.1117 / 5.01898 8657 ttn.v3 0.749km -126 -7 867.5MHz, SF10BW125, 4/5CR
2026-05-06 20:12:53 12.5°C 64.125% 3.32V v254 52.1117 / 5.01898 8656 ttn.v3 0.749km -114 -1 868.1MHz, SF10BW125, 4/5CR
2026-05-06 19:56:33 12.625°C 63.125% 3.32V v254 52.1117 / 5.01898 8655 ttn.v3 0.749km -118 -3 867.3MHz, SF10BW125, 4/5CR
2026-05-06 19:23:51 13.1875°C 63.0625% 3.32V v254 52.1117 / 5.01898 8653 ttn.v3 6.428km -126 -9.5 867.1MHz, SF10BW125, 4/5CR
0.749km -127 -14.2 867.1MHz, SF10BW125, 4/5CR
2026-05-06 18:51:08 13.25°C 59.5625% 3.32V v254 52.1117 / 5.01898 8651 ttn.v3 0.749km -128 -11 867.9MHz, SF10BW125, 4/5CR
2026-05-06 18:34:47 13.375°C 60.375% 3.32V v254 52.1117 / 5.01898 8650 ttn.v3 0.749km -126 -8.8 868.1MHz, SF10BW125, 4/5CR
6.428km -132 -17.5 868.1MHz, SF10BW125, 4/5CR
2026-05-06 18:18:26 13.5625°C 59.75% 3.32V v254 52.1117 / 5.01898 8649 ttn.v3 6.428km -125 -9 867.7MHz, SF10BW125, 4/5CR
0.749km -122 -9.5 867.7MHz, SF10BW125, 4/5CR
2026-05-06 17:45:44 13.5625°C 61.0625% 3.32V v254 52.1117 / 5.01898 8647 ttn.v3 0.749km -127 -8.2 867.5MHz, SF10BW125, 4/5CR
2026-05-06 17:13:01 13.5625°C 59.125% 3.32V v254 52.1117 / 5.01898 8645 ttn.v3 0.749km -128 -11 867.3MHz, SF10BW125, 4/5CR
6.428km -129 -12.75 867.3MHz, SF10BW125, 4/5CR
2026-05-06 16:40:18 13.3125°C 59.3125% 3.32V v254 52.1117 / 5.01898 8643 ttn.v3 0.749km -124 -13.2 867.1MHz, SF10BW125, 4/5CR
6.428km -132 -16.25 867.1MHz, SF10BW125, 4/5CR
2026-05-06 16:07:35 13.5625°C 60.8125% 3.32V v254 52.1117 / 5.01898 8641 ttn.v3 0.749km -128 -10.5 867.9MHz, SF10BW125, 4/5CR
2026-05-06 15:51:56 13.5°C 58.9375% 3.32V v254 52.1117 / 5.01898 8640 ttn.v3 0.749km -120 -13.5 868.3MHz, SF12BW125, 4/5CR
2026-05-06 15:34:56 13.3125°C 59.9375% 3.32V v254 52.1118 / 5.01898 8639 ttn.v3 0.751km -122 -9.5 867.7MHz, SF10BW125, 4/5CR
2026-05-06 15:02:13 14.5°C 51.75% 3.32V v254 52.1118 / 5.01898 8637 ttn.v3 0.751km -128 -10.5 867.5MHz, SF10BW125, 4/5CR
2026-05-06 14:29:29 14.5625°C 50.3125% 3.32V v254 52.1118 / 5.01898 8635 ttn.v3 0.751km -119 -3.8 867.3MHz, SF10BW125, 4/5CR
6.436km -123 -12.5 867.3MHz, SF10BW125, 4/5CR
2026-05-06 13:56:46 14.3125°C 56.375% 3.32V v254 52.1118 / 5.01898 8633 ttn.v3 0.751km -126 -13.5 867.1MHz, SF10BW125, 4/5CR
6.436km -132 -15.5 867.1MHz, SF10BW125, 4/5CR
2026-05-06 13:24:02 13.875°C 59.9375% 3.32V v254 52.1118 / 5.01898 8631 ttn.v3 0.751km -118 -4.5 867.9MHz, SF10BW125, 4/5CR
6.436km -129 -13.75 867.9MHz, SF10BW125, 4/5CR
2026-05-06 13:07:41 12.5625°C 70.4375% 3.32V v254 52.1118 / 5.01898 8630 ttn.v3 0.751km -122 -8.8 868.5MHz, SF10BW125, 4/5CR
2026-05-06 12:51:20 12.125°C 73.8125% 3.32V v254 52.1118 / 5.01898 8629 ttn.v3 0.751km -122 -10 867.7MHz, SF10BW125, 4/5CR
9.335km -103 -16.5 867.7MHz, SF10BW125, 4/5CR
2026-05-06 12:02:18 12.375°C 78.5625% 3.32V v254 52.1118 / 5.01898 8626 ttn.v3 0.751km -116 -1.2 868.1MHz, SF10BW125, 4/5CR
2026-05-06 11:45:57 13.25°C 70.3125% 3.32V v254 52.1118 / 5.01898 8625 ttn.v3 0.751km -119 -1.8 867.3MHz, SF10BW125, 4/5CR
2026-05-06 11:13:13 14.3125°C 68.5625% 3.32V v254 52.1118 / 5.01898 8623 ttn.v3 0.751km -123 -11.8 867.1MHz, SF10BW125, 4/5CR
6.436km -128 -12.25 867.1MHz, SF10BW125, 4/5CR
2026-05-06 10:07:47 12.9375°C 69.1875% 3.32V v254 52.1118 / 5.01898 8619 ttn.v3 0.751km -122 -9.5 867.7MHz, SF10BW125, 4/5CR
2026-05-06 09:35:05 12.8125°C 71.75% 3.32V v254 52.1118 / 5.01898 8617 ttn.v3 0.751km -125 -7.8 867.5MHz, SF10BW125, 4/5CR
2026-05-06 09:02:23 12.0625°C 82.875% 3.32V v254 52.1118 / 5.01898 8615 ttn.v3 0.751km -126 -8.8 867.3MHz, SF10BW125, 4/5CR
6.436km -128 -12.5 867.3MHz, SF10BW125, 4/5CR
2026-05-06 08:46:02 11.8125°C 84.4375% 3.32V v254 52.1118 / 5.01898 8614 ttn.v3 0.751km -124 -7.5 868.1MHz, SF10BW125, 4/5CR
2026-05-06 08:29:41 11.5625°C 86.25% 3.32V v254 52.1118 / 5.01898 8613 ttn.v3 0.751km -124 -11 867.1MHz, SF10BW125, 4/5CR
6.436km -130 -14.5 867.1MHz, SF10BW125, 4/5CR
2026-05-06 07:57:00 11.25°C 88.5625% 3.32V v254 52.1118 / 5.01898 8611 ttn.v3 0.751km -124 -7 867.9MHz, SF10BW125, 4/5CR
6.436km -129 -14.25 867.9MHz, SF10BW125, 4/5CR
2026-05-06 07:24:20 10.8125°C 91.375% 3.32V v254 52.1118 / 5.01898 8609 ttn.v3 0.751km -125 -13.2 867.7MHz, SF10BW125, 4/5CR
2026-05-06 06:19:00 10.5°C 91.125% 3.32V v254 52.1118 / 5.01898 8605 ttn.v3 0.751km -130 -13 867.3MHz, SF10BW125, 4/5CR
- -114 -14.5 867.3MHz, SF10BW125, 4/5CR
2026-05-06 05:46:20 10.125°C 90.625% 3.32V v254 52.1118 / 5.01898 8603 ttn.v3 0.751km -124 -10.8 867.1MHz, SF10BW125, 4/5CR
6.436km -128 -15.25 867.1MHz, SF10BW125, 4/5CR
2026-05-06 05:30:00 9.875°C 91.125% 3.32V v254 52.1118 / 5.01898 8602 ttn.v3 0.751km -116 -5.5 868.1MHz, SF10BW125, 4/5CR
2026-05-06 05:13:40 9.75°C 92.25% 3.32V v254 52.1118 / 5.01898 8601 ttn.v3 6.436km -125 -10.5 867.9MHz, SF10BW125, 4/5CR
0.751km -129 -11.8 867.9MHz, SF10BW125, 4/5CR
2026-05-06 04:41:01 10°C 88.25% 3.32V v254 52.1118 / 5.01898 8599 ttn.v3 6.436km -129 -13 867.7MHz, SF10BW125, 4/5CR
2026-05-06 04:24:41 10.1875°C 86.1875% 3.32V v254 52.1118 / 5.01898 8598 ttn.v3 0.751km -123 -9.8 868.3MHz, SF10BW125, 4/5CR
2026-05-06 04:08:22 10.25°C 84.75% 3.32V v254 52.1118 / 5.01898 8597 ttn.v3 0.751km -129 -9.8 867.5MHz, SF10BW125, 4/5CR
2026-05-06 03:52:02 10.5°C 82.6875% 3.32V v254 52.1118 / 5.01898 8596 ttn.v3 - -115 -17 868.1MHz, SF10BW125, 4/5CR
2026-05-06 03:03:02 10.5625°C 84.625% 3.32V v254 52.1118 / 5.01898 8593 ttn.v3 0.751km -125 -13.2 867.1MHz, SF10BW125, 4/5CR
- -114 -16 867.1MHz, SF10BW125, 4/5CR
6.436km -132 -16.75 867.1MHz, SF10BW125, 4/5CR
2026-05-06 02:30:23 10.4375°C 84.6875% 3.32V v254 52.1118 / 5.01898 8591 ttn.v3 6.436km -129 -12.25 867.9MHz, SF10BW125, 4/5CR
- -115 -15.25 867.9MHz, SF10BW125, 4/5CR
2026-05-06 02:14:03 10.3125°C 86.625% 3.32V v254 52.1118 / 5.01898 8590 ttn.v3 0.751km -128 -9.5 868.1MHz, SF10BW125, 4/5CR
- -114 -14.5 868.1MHz, SF10BW125, 4/5CR
2026-05-06 01:57:43 10°C 88.5625% 3.32V v254 52.1118 / 5.01898 8589 ttn.v3 0.751km -122 -8.2 867.7MHz, SF10BW125, 4/5CR
6.436km -131 -14.5 867.7MHz, SF10BW125, 4/5CR
2026-05-06 01:41:24 9.5625°C 91.3125% 3.32V v254 52.1118 / 5.01898 8588 ttn.v3 - -114 -13.25 868.5MHz, SF10BW125, 4/5CR
6.436km -125 -14.75 868.5MHz, SF10BW125, 4/5CR
2026-05-06 01:25:05 9.3125°C 93% 3.32V v254 52.1118 / 5.01898 8587 ttn.v3 0.751km -126 -6.5 867.5MHz, SF10BW125, 4/5CR
2026-05-06 01:08:46 9.0625°C 92.375% 3.32V v254 52.1118 / 5.01898 8586 ttn.v3 - -112 -15 868.3MHz, SF10BW125, 4/5CR
2026-05-06 00:52:26 9.25°C 91.4375% 3.32V v254 52.1118 / 5.01898 8585 ttn.v3 6.436km -130 -15.25 867.3MHz, SF10BW125, 4/5CR
2026-05-06 00:36:07 9.375°C 89.9375% 3.32V v254 52.1118 / 5.01898 8584 ttn.v3 0.751km -118 -4.5 868.1MHz, SF10BW125, 4/5CR
6.436km -125 -10.5 868.1MHz, SF10BW125, 4/5CR
2026-05-06 00:19:48 9.4375°C 87.5625% 3.32V v254 52.1118 / 5.01898 8583 ttn.v3 6.436km -127 -11.25 867.1MHz, SF10BW125, 4/5CR
0.751km -128 -14.8 867.1MHz, SF10BW125, 4/5CR
2026-05-06 00:03:29 9.0625°C 85.8125% 3.32V v254 52.1118 / 5.01898 8582 ttn.v3 0.751km -106 -8.5 868.5MHz, SF10BW125, 4/5CR
- -113 -17.25 868.5MHz, SF10BW125, 4/5CR
2026-05-05 23:47:10 9.125°C 84.8125% 3.32V v254 52.1118 / 5.01898 8581 ttn.v3 0.751km -118 -2.8 867.9MHz, SF10BW125, 4/5CR
6.436km -130 -12.75 867.9MHz, SF10BW125, 4/5CR
2026-05-05 23:14:31 9.75°C 80.875% 3.32V v254 52.1118 / 5.01898 8579 ttn.v3 0.751km -121 -9.8 867.7MHz, SF10BW125, 4/5CR
9.335km -105 -12 867.7MHz, SF10BW125, 4/5CR
2026-05-05 22:58:12 10.25°C 79.25% 3.32V v254 52.1118 / 5.01898 8578 ttn.v3 0.751km -127 -10.2 868.1MHz, SF10BW125, 4/5CR
- -115 -12.25 868.1MHz, SF10BW125, 4/5CR
2026-05-05 22:41:52 10.875°C 77.8125% 3.32V v254 52.1118 / 5.01898 8577 ttn.v3 0.751km -130 -10.5 867.5MHz, SF10BW125, 4/5CR
2026-05-05 22:25:32 11.125°C 77.9375% 3.32V v254 52.1118 / 5.01898 8576 ttn.v3 - -114 -16.25 868.5MHz, SF10BW125, 4/5CR
2026-05-05 22:09:12 11.125°C 77.6875% 3.32V v254 52.1118 / 5.01898 8575 ttn.v3 0.751km -127 -9.8 867.3MHz, SF10BW125, 4/5CR
2026-05-05 21:52:52 11°C 79.25% 3.32V v254 52.1118 / 5.01898 8574 ttn.v3 - -112 -13.25 868.3MHz, SF10BW125, 4/5CR
2026-05-05 21:36:32 10.875°C 79.6875% 3.32V v254 52.1118 / 5.01898 8573 ttn.v3 0.751km -120 -8.2 867.1MHz, SF10BW125, 4/5CR
2026-05-05 21:03:52 11°C 81.5625% 3.32V v254 52.1118 / 5.01898 8571 ttn.v3 6.436km -129 -13.75 867.9MHz, SF10BW125, 4/5CR
- -115 -16.25 867.9MHz, SF10BW125, 4/5CR
2026-05-05 19:58:29 12.25°C 76.875% 3.32V v254 52.1118 / 5.01898 8567 ttn.v3 0.751km -120 -6 867.5MHz, SF10BW125, 4/5CR
2026-05-05 19:42:08 12.6875°C 76.0625% 3.32V v254 52.1118 / 5.01898 8566 ttn.v3 0.751km -127 -10 868.1MHz, SF10BW125, 4/5CR
2026-05-05 19:25:47 13.125°C 74.0625% 3.32V v254 52.1118 / 5.01898 8565 ttn.v3 0.751km -118 -4.8 867.3MHz, SF10BW125, 4/5CR
2026-05-05 19:09:26 13.875°C 70.5625% 3.32V v254 52.1118 / 5.01898 8564 ttn.v3 - -113 -14.25 868.5MHz, SF10BW125, 4/5CR
2026-05-05 18:53:04 14°C 70.25% 3.32V v254 52.1118 / 5.01898 8563 ttn.v3 6.436km -131 -14.5 867.1MHz, SF10BW125, 4/5CR
0.751km -128 -14.5 867.1MHz, SF10BW125, 4/5CR
2026-05-05 18:20:22 13.5625°C 73.5625% 3.32V v254 52.1118 / 5.01898 8561 ttn.v3 0.751km -127 -10 867.9MHz, SF10BW125, 4/5CR
2026-05-05 18:04:00 13.75°C 73.75% 3.32V v254 52.1118 / 5.01898 8560 ttn.v3 0.751km -124 -8.5 868.1MHz, SF10BW125, 4/5CR
2026-05-05 17:47:39 14.1875°C 68.9375% 3.32V v254 52.1118 / 5.01898 8559 ttn.v3 0.751km -128 -15 867.7MHz, SF10BW125, 4/5CR
6.436km -128 -15.25 867.7MHz, SF10BW125, 4/5CR
2026-05-05 17:31:17 14.25°C 70% 3.32V v254 52.1118 / 5.01898 8558 ttn.v3 0.751km -127 -14.2 868.5MHz, SF10BW125, 4/5CR
2026-05-05 17:14:55 15.125°C 67.3125% 3.32V v254 52.1118 / 5.01898 8557 ttn.v3 0.751km -122 -9.8 867.5MHz, SF10BW125, 4/5CR
2026-05-05 16:42:11 14.625°C 70.5% 3.32V v254 52.1118 / 5.01898 8555 ttn.v3 0.751km -118 -3.8 867.3MHz, SF10BW125, 4/5CR
2026-05-05 16:25:50 14.875°C 69.25% 3.32V v254 52.1118 / 5.01898 8554 ttn.v3 0.751km -124 -8.5 868.1MHz, SF10BW125, 4/5CR
2026-05-05 16:09:27 16.5625°C 68.1875% 3.32V v254 52.1118 / 5.01898 8553 ttn.v3 0.751km -118 -6.5 867.1MHz, SF10BW125, 4/5CR
2026-05-05 15:36:43 16.25°C 64.75% 3.32V v254 52.1118 / 5.01898 8551 ttn.v3 0.751km -124 -6.8 867.9MHz, SF10BW125, 4/5CR
2026-05-05 15:03:58 16.4375°C 66% 3.33V v254 52.1118 / 5.01898 8549 ttn.v3 0.751km -127 -14.8 867.7MHz, SF10BW125, 4/5CR
2026-05-05 14:47:36 16.1875°C 64.375% 3.32V v254 52.1118 / 5.01898 8548 ttn.v3 0.751km -120 -4.5 868.1MHz, SF10BW125, 4/5CR
2026-05-05 14:31:14 15.875°C 64.0625% 3.32V v254 52.1118 / 5.01898 8547 ttn.v3 0.751km -115 -0.8 867.5MHz, SF10BW125, 4/5CR
2026-05-05 13:58:30 15.25°C 69.0625% 3.32V v254 52.1118 / 5.01898 8545 ttn.v3 0.751km -128 -10.8 867.3MHz, SF10BW125, 4/5CR
2026-05-05 13:42:55 14.5625°C 71.9375% 3.32V v254 52.1118 / 5.01898 8544 ttn.v3 - -112 -14.5 868.3MHz, SF12BW125, 4/5CR
2026-05-05 13:25:51 13.3125°C 77.125% 3.32V v254 52.1117 / 5.01901 8543 ttn.v3 0.751km -129 -16.2 867.1MHz, SF10BW125, 4/5CR

Message count: 200
Node count: 1

Messages per node

Number of messages in list aboveNodes
200

Statistics per gateway

GatewayNumber of messagesNumber of nodesNodes
1721 (0.751km)
561 (6.436km)
201 (9.335km)
181
11

Filter by dataset